Kisarazu, Kisarazu Air Field (RJTK)

NameKisarazu Air Field
CityKisarazu
CountryJapan
ICAORJTK
IATA
Altitude3 m
CoordinatesGoogle Map
Live Air TrafficLiveATC.net
METARRJTK 180645Z 21024KT 9999 FEW020 SCT230 20/14 Q1012 RMK 1CU020 3CI230 A2989 MAX WIND 33KT
2019-11-18 06:45:00 Wind: South-Southwest (210°) 12.35 m/s - Visibility: > 10000 m - Temperature: 20 °C - Dew point: 14 °C - Humidity: 68.5% - Pressure: 1012 hPa

Sorry, no flights used the airport in this database.